sensor_id;sensor_type;location;lat;lon;timestamp;P1;durP1;ratioP1;P2;durP2;ratioP2
47367;SDS011;34646;47.964;7.982;2024-02-14T00:02:22;1.63;;;0.60;;
47367;SDS011;34646;47.964;7.982;2024-02-14T00:08:23;3.15;;;0.80;;
47367;SDS011;34646;47.964;7.982;2024-02-14T00:14:24;4.13;;;0.70;;
47367;SDS011;34646;47.964;7.982;2024-02-14T00:20:25;4.73;;;0.90;;
47367;SDS011;34646;47.964;7.982;2024-02-14T00:26:26;4.33;;;0.70;;
47367;SDS011;34646;47.964;7.982;2024-02-14T00:32:27;2.00;;;0.60;;
47367;SDS011;34646;47.964;7.982;2024-02-14T00:38:28;1.40;;;0.60;;
47367;SDS011;34646;47.964;7.982;2024-02-14T00:44:29;1.73;;;0.65;;
47367;SDS011;34646;47.964;7.982;2024-02-14T00:50:30;2.40;;;0.70;;
47367;SDS011;34646;47.964;7.982;2024-02-14T00:56:31;3.80;;;1.10;;
47367;SDS011;34646;47.964;7.982;2024-02-14T01:02:32;1.30;;;0.60;;
47367;SDS011;34646;47.964;7.982;2024-02-14T01:08:33;3.40;;;0.67;;
47367;SDS011;34646;47.964;7.982;2024-02-14T01:14:36;3.53;;;1.08;;
47367;SDS011;34646;47.964;7.982;2024-02-14T01:20:37;0.73;;;0.40;;
47367;SDS011;34646;47.964;7.982;2024-02-14T01:26:38;2.97;;;0.52;;
47367;SDS011;34646;47.964;7.982;2024-02-14T01:32:40;2.15;;;0.80;;
47367;SDS011;34646;47.964;7.982;2024-02-14T01:38:41;3.40;;;0.80;;
47367;SDS011;34646;47.964;7.982;2024-02-14T01:44:42;1.33;;;0.50;;
47367;SDS011;34646;47.964;7.982;2024-02-14T01:50:44;2.93;;;0.60;;
47367;SDS011;34646;47.964;7.982;2024-02-14T01:56:45;1.58;;;0.60;;
47367;SDS011;34646;47.964;7.982;2024-02-14T02:02:47;1.55;;;0.52;;
47367;SDS011;34646;47.964;7.982;2024-02-14T02:08:53;2.78;;;1.10;;
47367;SDS011;34646;47.964;7.982;2024-02-14T02:14:54;1.93;;;0.60;;
47367;SDS011;34646;47.964;7.982;2024-02-14T02:20:55;1.60;;;0.55;;
47367;SDS011;34646;47.964;7.982;2024-02-14T02:32:57;2.83;;;0.70;;
47367;SDS011;34646;47.964;7.982;2024-02-14T02:38:58;1.37;;;0.80;;
47367;SDS011;34646;47.964;7.982;2024-02-14T02:51:02;2.97;;;0.63;;
47367;SDS011;34646;47.964;7.982;2024-02-14T02:57:03;1.80;;;0.67;;
47367;SDS011;34646;47.964;7.982;2024-02-14T03:03:07;1.30;;;0.55;;
47367;SDS011;34646;47.964;7.982;2024-02-14T03:09:08;1.45;;;0.60;;
47367;SDS011;34646;47.964;7.982;2024-02-14T03:15:09;1.83;;;0.65;;
47367;SDS011;34646;47.964;7.982;2024-02-14T03:21:10;2.63;;;0.60;;
47367;SDS011;34646;47.964;7.982;2024-02-14T03:27:12;3.22;;;0.60;;
47367;SDS011;34646;47.964;7.982;2024-02-14T03:33:13;1.38;;;0.73;;
47367;SDS011;34646;47.964;7.982;2024-02-14T03:39:15;2.28;;;0.60;;
47367;SDS011;34646;47.964;7.982;2024-02-14T03:45:17;3.03;;;0.90;;
47367;SDS011;34646;47.964;7.982;2024-02-14T03:51:18;2.37;;;0.60;;
47367;SDS011;34646;47.964;7.982;2024-02-14T04:03:20;0.73;;;0.40;;
47367;SDS011;34646;47.964;7.982;2024-02-14T04:09:21;0.95;;;0.50;;
47367;SDS011;34646;47.964;7.982;2024-02-14T04:15:22;0.97;;;0.50;;
47367;SDS011;34646;47.964;7.982;2024-02-14T04:21:23;1.20;;;0.60;;
47367;SDS011;34646;47.964;7.982;2024-02-14T04:27:24;1.20;;;0.50;;
47367;SDS011;34646;47.964;7.982;2024-02-14T04:33:25;1.37;;;0.50;;
47367;SDS011;34646;47.964;7.982;2024-02-14T04:39:26;1.87;;;0.50;;
47367;SDS011;34646;47.964;7.982;2024-02-14T04:45:27;9.13;;;0.90;;
47367;SDS011;34646;47.964;7.982;2024-02-14T04:51:28;1.67;;;0.70;;
47367;SDS011;34646;47.964;7.982;2024-02-14T04:57:30;1.40;;;0.55;;
47367;SDS011;34646;47.964;7.982;2024-02-14T05:03:31;0.70;;;0.40;;
47367;SDS011;34646;47.964;7.982;2024-02-14T05:09:32;1.73;;;0.60;;
47367;SDS011;34646;47.964;7.982;2024-02-14T05:15:34;1.48;;;0.57;;
47367;SDS011;34646;47.964;7.982;2024-02-14T05:21:35;1.23;;;0.45;;
47367;SDS011;34646;47.964;7.982;2024-02-14T05:27:36;1.77;;;0.57;;
47367;SDS011;34646;47.964;7.982;2024-02-14T05:33:37;1.80;;;0.50;;
47367;SDS011;34646;47.964;7.982;2024-02-14T05:39:38;2.93;;;0.67;;
47367;SDS011;34646;47.964;7.982;2024-02-14T05:45:39;1.13;;;0.47;;
47367;SDS011;34646;47.964;7.982;2024-02-14T05:51:41;6.00;;;0.95;;
47367;SDS011;34646;47.964;7.982;2024-02-14T05:57:42;2.90;;;0.53;;
47367;SDS011;34646;47.964;7.982;2024-02-14T06:03:44;1.92;;;0.52;;
47367;SDS011;34646;47.964;7.982;2024-02-14T06:09:45;1.63;;;0.60;;
47367;SDS011;34646;47.964;7.982;2024-02-14T06:15:46;1.57;;;0.40;;
47367;SDS011;34646;47.964;7.982;2024-02-14T06:21:47;2.60;;;0.70;;
47367;SDS011;34646;47.964;7.982;2024-02-14T06:27:48;2.73;;;0.67;;
47367;SDS011;34646;47.964;7.982;2024-02-14T06:33:49;2.10;;;0.63;;
47367;SDS011;34646;47.964;7.982;2024-02-14T06:39:50;1.20;;;0.60;;
47367;SDS011;34646;47.964;7.982;2024-02-14T06:45:51;1.43;;;0.50;;
47367;SDS011;34646;47.964;7.982;2024-02-14T06:51:52;2.53;;;0.50;;
47367;SDS011;34646;47.964;7.982;2024-02-14T06:57:53;2.92;;;0.50;;
47367;SDS011;34646;47.964;7.982;2024-02-14T07:03:54;2.88;;;0.45;;
47367;SDS011;34646;47.964;7.982;2024-02-14T07:09:55;2.60;;;0.50;;
47367;SDS011;34646;47.964;7.982;2024-02-14T07:15:56;1.67;;;0.60;;
47367;SDS011;34646;47.964;7.982;2024-02-14T07:21:58;7.23;;;0.77;;
47367;SDS011;34646;47.964;7.982;2024-02-14T07:27:59;431.73;;;211.83;;
47367;SDS011;34646;47.964;7.982;2024-02-14T07:34:00;337.40;;;91.47;;
47367;SDS011;34646;47.964;7.982;2024-02-14T07:40:03;341.98;;;79.47;;
47367;SDS011;34646;47.964;7.982;2024-02-14T07:46:05;75.32;;;18.58;;
47367;SDS011;34646;47.964;7.982;2024-02-14T07:52:07;178.25;;;40.47;;
47367;SDS011;34646;47.964;7.982;2024-02-14T07:58:08;571.53;;;165.93;;
47367;SDS011;34646;47.964;7.982;2024-02-14T08:04:09;525.17;;;145.97;;
47367;SDS011;34646;47.964;7.982;2024-02-14T08:10:10;487.10;;;137.13;;
47367;SDS011;34646;47.964;7.982;2024-02-14T08:16:11;469.03;;;137.93;;
47367;SDS011;34646;47.964;7.982;2024-02-14T08:22:12;396.42;;;112.57;;
47367;SDS011;34646;47.964;7.982;2024-02-14T08:28:13;335.83;;;101.43;;
47367;SDS011;34646;47.964;7.982;2024-02-14T08:34:15;17.20;;;6.47;;
47367;SDS011;34646;47.964;7.982;2024-02-14T08:40:16;110.90;;;35.92;;
47367;SDS011;34646;47.964;7.982;2024-02-14T08:46:17;98.90;;;30.63;;
47367;SDS011;34646;47.964;7.982;2024-02-14T08:52:18;95.43;;;31.30;;
47367;SDS011;34646;47.964;7.982;2024-02-14T08:58:20;85.40;;;29.80;;
47367;SDS011;34646;47.964;7.982;2024-02-14T09:04:22;82.10;;;27.90;;
47367;SDS011;34646;47.964;7.982;2024-02-14T09:10:23;80.28;;;27.92;;
47367;SDS011;34646;47.964;7.982;2024-02-14T09:16:24;88.63;;;30.73;;
47367;SDS011;34646;47.964;7.982;2024-02-14T09:22:25;89.43;;;32.90;;
47367;SDS011;34646;47.964;7.982;2024-02-14T09:28:26;93.20;;;31.43;;
47367;SDS011;34646;47.964;7.982;2024-02-14T09:34:27;75.63;;;29.10;;
47367;SDS011;34646;47.964;7.982;2024-02-14T09:40:28;90.87;;;33.33;;
47367;SDS011;34646;47.964;7.982;2024-02-14T09:46:29;81.37;;;31.80;;
47367;SDS011;34646;47.964;7.982;2024-02-14T09:52:32;77.82;;;30.73;;
47367;SDS011;34646;47.964;7.982;2024-02-14T09:58:33;76.05;;;30.77;;
47367;SDS011;34646;47.964;7.982;2024-02-14T10:04:35;72.20;;;29.35;;
47367;SDS011;34646;47.964;7.982;2024-02-14T10:10:37;76.70;;;29.45;;
47367;SDS011;34646;47.964;7.982;2024-02-14T10:16:38;70.53;;;28.02;;
47367;SDS011;34646;47.964;7.982;2024-02-14T10:22:38;67.00;;;27.57;;
47367;SDS011;34646;47.964;7.982;2024-02-14T10:28:42;63.20;;;25.77;;
47367;SDS011;34646;47.964;7.982;2024-02-14T10:34:44;66.68;;;26.63;;
47367;SDS011;34646;47.964;7.982;2024-02-14T10:40:48;60.85;;;26.65;;
47367;SDS011;34646;47.964;7.982;2024-02-14T10:46:49;60.55;;;25.70;;
47367;SDS011;34646;47.964;7.982;2024-02-14T10:52:53;61.55;;;24.55;;
47367;SDS011;34646;47.964;7.982;2024-02-14T10:58:57;63.58;;;25.85;;
47367;SDS011;34646;47.964;7.982;2024-02-14T11:05:01;59.58;;;24.67;;
47367;SDS011;34646;47.964;7.982;2024-02-14T11:11:02;65.20;;;24.20;;
47367;SDS011;34646;47.964;7.982;2024-02-14T11:17:10;52.43;;;22.47;;
47367;SDS011;34646;47.964;7.982;2024-02-14T11:23:20;55.45;;;23.77;;
47367;SDS011;34646;47.964;7.982;2024-02-14T11:29:28;54.30;;;24.38;;
47367;SDS011;34646;47.964;7.982;2024-02-14T11:35:29;51.67;;;22.45;;
47367;SDS011;34646;47.964;7.982;2024-02-14T11:41:35;49.90;;;21.80;;
47367;SDS011;34646;47.964;7.982;2024-02-14T11:47:36;53.88;;;23.42;;
47367;SDS011;34646;47.964;7.982;2024-02-14T11:53:38;48.03;;;21.70;;
47367;SDS011;34646;47.964;7.982;2024-02-14T11:59:40;51.33;;;22.85;;
47367;SDS011;34646;47.964;7.982;2024-02-14T12:05:42;49.80;;;21.70;;
47367;SDS011;34646;47.964;7.982;2024-02-14T12:11:46;46.05;;;21.13;;
47367;SDS011;34646;47.964;7.982;2024-02-14T12:17:47;47.72;;;20.88;;
47367;SDS011;34646;47.964;7.982;2024-02-14T12:23:49;45.53;;;19.92;;
47367;SDS011;34646;47.964;7.982;2024-02-14T12:29:58;45.28;;;18.38;;
47367;SDS011;34646;47.964;7.982;2024-02-14T12:35:59;45.47;;;19.10;;
47367;SDS011;34646;47.964;7.982;2024-02-14T12:42:00;49.75;;;17.88;;
47367;SDS011;34646;47.964;7.982;2024-02-14T12:48:03;45.83;;;16.35;;
47367;SDS011;34646;47.964;7.982;2024-02-14T12:54:08;56.15;;;15.73;;
47367;SDS011;34646;47.964;7.982;2024-02-14T13:00:12;40.70;;;15.18;;
47367;SDS011;34646;47.964;7.982;2024-02-14T13:06:13;58.88;;;14.85;;
47367;SDS011;34646;47.964;7.982;2024-02-14T13:12:16;22.15;;;3.95;;
47367;SDS011;34646;47.964;7.982;2024-02-14T13:18:18;14.57;;;5.68;;
47367;SDS011;34646;47.964;7.982;2024-02-14T13:24:19;15.70;;;7.05;;
47367;SDS011;34646;47.964;7.982;2024-02-14T13:30:20;19.93;;;6.57;;
47367;SDS011;34646;47.964;7.982;2024-02-14T13:36:22;26.30;;;7.53;;
47367;SDS011;34646;47.964;7.982;2024-02-14T13:42:23;22.90;;;6.95;;
47367;SDS011;34646;47.964;7.982;2024-02-14T13:54:25;22.92;;;6.93;;
47367;SDS011;34646;47.964;7.982;2024-02-14T14:00:27;19.17;;;7.40;;
47367;SDS011;34646;47.964;7.982;2024-02-14T14:06:28;18.25;;;4.50;;
47367;SDS011;34646;47.964;7.982;2024-02-14T14:12:32;16.65;;;5.32;;
47367;SDS011;34646;47.964;7.982;2024-02-14T14:18:33;13.48;;;4.90;;
47367;SDS011;34646;47.964;7.982;2024-02-14T14:24:34;17.35;;;5.03;;
47367;SDS011;34646;47.964;7.982;2024-02-14T14:30:35;19.85;;;5.63;;
47367;SDS011;34646;47.964;7.982;2024-02-14T14:36:37;21.80;;;4.97;;
47367;SDS011;34646;47.964;7.982;2024-02-14T14:42:40;13.63;;;4.85;;
47367;SDS011;34646;47.964;7.982;2024-02-14T14:48:41;14.30;;;5.37;;
47367;SDS011;34646;47.964;7.982;2024-02-14T14:54:43;17.42;;;5.13;;
47367;SDS011;34646;47.964;7.982;2024-02-14T15:00:44;17.50;;;5.57;;
47367;SDS011;34646;47.964;7.982;2024-02-14T15:06:45;13.63;;;5.38;;
47367;SDS011;34646;47.964;7.982;2024-02-14T15:12:47;15.60;;;4.90;;
47367;SDS011;34646;47.964;7.982;2024-02-14T15:18:48;13.65;;;5.20;;
47367;SDS011;34646;47.964;7.982;2024-02-14T15:24:50;14.60;;;4.50;;
47367;SDS011;34646;47.964;7.982;2024-02-14T15:37:11;9.02;;;3.50;;
47367;SDS011;34646;47.964;7.982;2024-02-14T15:49:13;22.70;;;5.13;;
47367;SDS011;34646;47.964;7.982;2024-02-14T15:55:14;14.03;;;4.40;;
47367;SDS011;34646;47.964;7.982;2024-02-14T16:01:16;18.10;;;4.85;;
47367;SDS011;34646;47.964;7.982;2024-02-14T16:07:18;13.82;;;4.28;;
47367;SDS011;34646;47.964;7.982;2024-02-14T16:13:19;9.60;;;4.70;;
47367;SDS011;34646;47.964;7.982;2024-02-14T16:19:20;9.05;;;3.67;;
47367;SDS011;34646;47.964;7.982;2024-02-14T16:25:21;10.77;;;3.50;;
47367;SDS011;34646;47.964;7.982;2024-02-14T16:31:22;9.93;;;3.20;;
47367;SDS011;34646;47.964;7.982;2024-02-14T16:37:23;11.90;;;3.67;;
47367;SDS011;34646;47.964;7.982;2024-02-14T16:43:24;14.07;;;3.90;;
47367;SDS011;34646;47.964;7.982;2024-02-14T16:49:26;10.40;;;3.72;;
47367;SDS011;34646;47.964;7.982;2024-02-14T16:55:27;11.32;;;3.65;;
47367;SDS011;34646;47.964;7.982;2024-02-14T17:01:28;15.18;;;4.53;;
47367;SDS011;34646;47.964;7.982;2024-02-14T17:07:29;11.02;;;4.25;;
47367;SDS011;34646;47.964;7.982;2024-02-14T17:13:30;12.27;;;4.70;;
47367;SDS011;34646;47.964;7.982;2024-02-14T17:19:32;14.57;;;4.22;;
47367;SDS011;34646;47.964;7.982;2024-02-14T17:31:35;10.53;;;4.13;;
47367;SDS011;34646;47.964;7.982;2024-02-14T17:37:37;11.38;;;4.50;;
47367;SDS011;34646;47.964;7.982;2024-02-14T17:43:38;10.85;;;4.13;;
47367;SDS011;34646;47.964;7.982;2024-02-14T17:49:39;11.90;;;4.10;;
47367;SDS011;34646;47.964;7.982;2024-02-14T17:55:40;13.83;;;4.37;;
47367;SDS011;34646;47.964;7.982;2024-02-14T18:01:41;13.53;;;6.20;;
47367;SDS011;34646;47.964;7.982;2024-02-14T18:07:42;16.67;;;5.83;;
47367;SDS011;34646;47.964;7.982;2024-02-14T18:13:43;21.00;;;5.28;;
47367;SDS011;34646;47.964;7.982;2024-02-14T18:19:44;22.42;;;5.20;;
47367;SDS011;34646;47.964;7.982;2024-02-14T18:25:45;12.90;;;5.28;;
47367;SDS011;34646;47.964;7.982;2024-02-14T18:31:46;15.35;;;5.60;;
47367;SDS011;34646;47.964;7.982;2024-02-14T18:37:47;14.55;;;4.65;;
47367;SDS011;34646;47.964;7.982;2024-02-14T18:43:48;16.38;;;5.55;;
47367;SDS011;34646;47.964;7.982;2024-02-14T18:49:50;15.80;;;5.40;;
47367;SDS011;34646;47.964;7.982;2024-02-14T18:55:50;13.77;;;4.93;;
47367;SDS011;34646;47.964;7.982;2024-02-14T19:01:52;21.10;;;7.40;;
47367;SDS011;34646;47.964;7.982;2024-02-14T19:07:53;18.58;;;7.60;;
47367;SDS011;34646;47.964;7.982;2024-02-14T19:13:54;19.98;;;7.28;;
47367;SDS011;34646;47.964;7.982;2024-02-14T19:19:55;18.63;;;7.60;;
47367;SDS011;34646;47.964;7.982;2024-02-14T19:25:56;20.95;;;7.85;;
47367;SDS011;34646;47.964;7.982;2024-02-14T19:31:56;22.23;;;6.60;;
47367;SDS011;34646;47.964;7.982;2024-02-14T19:37:57;21.03;;;6.10;;
47367;SDS011;34646;47.964;7.982;2024-02-14T19:43:58;28.10;;;10.23;;
47367;SDS011;34646;47.964;7.982;2024-02-14T19:50:00;28.88;;;9.20;;
47367;SDS011;34646;47.964;7.982;2024-02-14T19:56:06;25.73;;;8.85;;
47367;SDS011;34646;47.964;7.982;2024-02-14T20:02:07;29.77;;;8.63;;
47367;SDS011;34646;47.964;7.982;2024-02-14T20:08:08;25.17;;;8.70;;
47367;SDS011;34646;47.964;7.982;2024-02-14T20:14:09;23.95;;;8.98;;
47367;SDS011;34646;47.964;7.982;2024-02-14T20:20:10;25.27;;;9.35;;
47367;SDS011;34646;47.964;7.982;2024-02-14T20:26:11;23.42;;;7.90;;
47367;SDS011;34646;47.964;7.982;2024-02-14T20:32:12;20.13;;;8.07;;
47367;SDS011;34646;47.964;7.982;2024-02-14T20:38:16;21.10;;;8.02;;
47367;SDS011;34646;47.964;7.982;2024-02-14T20:44:17;19.80;;;7.22;;
47367;SDS011;34646;47.964;7.982;2024-02-14T20:50:18;18.92;;;7.38;;
47367;SDS011;34646;47.964;7.982;2024-02-14T20:56:20;25.15;;;8.65;;
47367;SDS011;34646;47.964;7.982;2024-02-14T21:02:21;25.27;;;7.70;;
47367;SDS011;34646;47.964;7.982;2024-02-14T21:08:22;22.10;;;7.93;;
47367;SDS011;34646;47.964;7.982;2024-02-14T21:14:24;19.35;;;6.90;;
47367;SDS011;34646;47.964;7.982;2024-02-14T21:20:25;18.88;;;7.30;;
47367;SDS011;34646;47.964;7.982;2024-02-14T21:26:26;20.20;;;6.80;;
47367;SDS011;34646;47.964;7.982;2024-02-14T21:32:28;15.95;;;6.68;;
47367;SDS011;34646;47.964;7.982;2024-02-14T21:38:29;37.65;;;12.48;;
47367;SDS011;34646;47.964;7.982;2024-02-14T21:44:30;28.63;;;10.60;;
47367;SDS011;34646;47.964;7.982;2024-02-14T21:50:31;21.85;;;9.23;;
47367;SDS011;34646;47.964;7.982;2024-02-14T21:56:32;26.52;;;10.02;;
47367;SDS011;34646;47.964;7.982;2024-02-14T22:02:33;24.52;;;8.90;;
47367;SDS011;34646;47.964;7.982;2024-02-14T22:08:34;26.77;;;8.80;;
47367;SDS011;34646;47.964;7.982;2024-02-14T22:14:35;24.25;;;9.27;;
47367;SDS011;34646;47.964;7.982;2024-02-14T22:20:36;23.57;;;7.97;;
47367;SDS011;34646;47.964;7.982;2024-02-14T22:26:38;23.95;;;8.50;;
47367;SDS011;34646;47.964;7.982;2024-02-14T22:32:39;19.35;;;7.90;;
47367;SDS011;34646;47.964;7.982;2024-02-14T22:38:40;19.58;;;7.95;;
47367;SDS011;34646;47.964;7.982;2024-02-14T22:50:43;18.95;;;7.50;;
47367;SDS011;34646;47.964;7.982;2024-02-14T22:56:44;21.38;;;7.80;;
47367;SDS011;34646;47.964;7.982;2024-02-14T23:02:45;14.80;;;7.37;;
47367;SDS011;34646;47.964;7.982;2024-02-14T23:08:47;17.80;;;7.53;;
47367;SDS011;34646;47.964;7.982;2024-02-14T23:14:48;16.80;;;7.53;;
47367;SDS011;34646;47.964;7.982;2024-02-14T23:20:49;18.03;;;7.77;;
47367;SDS011;34646;47.964;7.982;2024-02-14T23:26:50;18.40;;;7.10;;
47367;SDS011;34646;47.964;7.982;2024-02-14T23:32:51;16.90;;;7.20;;
47367;SDS011;34646;47.964;7.982;2024-02-14T23:38:53;16.90;;;7.47;;
47367;SDS011;34646;47.964;7.982;2024-02-14T23:44:54;15.20;;;6.28;;
47367;SDS011;34646;47.964;7.982;2024-02-14T23:50:55;15.75;;;6.72;;
47367;SDS011;34646;47.964;7.982;2024-02-14T23:56:59;15.68;;;6.85;;
